sensor_id;sensor_type;location;lat;lon;timestamp;temperature;humidity
80290;SHT30;69592;44.804;-0.550;2024-03-02T00:03:59;10.42;99.99
80290;SHT30;69592;44.804;-0.550;2024-03-02T00:06:24;10.32;99.99
80290;SHT30;69592;44.804;-0.550;2024-03-02T00:08:49;10.35;99.99
80290;SHT30;69592;44.804;-0.550;2024-03-02T00:11:15;10.33;99.99
80290;SHT30;69592;44.804;-0.550;2024-03-02T00:13:41;10.32;99.99
80290;SHT30;69592;44.804;-0.550;2024-03-02T00:16:07;10.26;99.99
80290;SHT30;69592;44.804;-0.550;2024-03-02T00:18:34;10.23;99.99
80290;SHT30;69592;44.804;-0.550;2024-03-02T00:21:00;10.28;99.99
80290;SHT30;69592;44.804;-0.550;2024-03-02T00:23:29;10.26;99.99
80290;SHT30;69592;44.804;-0.550;2024-03-02T00:25:56;10.37;99.99
80290;SHT30;69592;44.804;-0.550;2024-03-02T00:31:11;10.28;99.99
80290;SHT30;69592;44.804;-0.550;2024-03-02T00:33:41;10.29;99.99
80290;SHT30;69592;44.804;-0.550;2024-03-02T00:36:08;10.30;99.99
80290;SHT30;69592;44.804;-0.550;2024-03-02T00:38:34;10.19;99.99
80290;SHT30;69592;44.804;-0.550;2024-03-02T00:41:04;10.20;99.99
80290;SHT30;69592;44.804;-0.550;2024-03-02T00:43:41;10.12;99.99
80290;SHT30;69592;44.804;-0.550;2024-03-02T00:46:07;10.06;99.99
80290;SHT30;69592;44.804;-0.550;2024-03-02T00:48:33;10.05;99.99
80290;SHT30;69592;44.804;-0.550;2024-03-02T00:51:02;10.02;99.99
80290;SHT30;69592;44.804;-0.550;2024-03-02T00:53:31;10.03;99.99
80290;SHT30;69592;44.804;-0.550;2024-03-02T00:55:58;10.01;99.99
80290;SHT30;69592;44.804;-0.550;2024-03-02T00:58:24;10.08;99.99
80290;SHT30;69592;44.804;-0.550;2024-03-02T01:00:50;10.03;99.99
80290;SHT30;69592;44.804;-0.550;2024-03-02T01:03:15;10.06;99.99
80290;SHT30;69592;44.804;-0.550;2024-03-02T01:05:43;10.03;99.99
80290;SHT30;69592;44.804;-0.550;2024-03-02T01:08:10;9.93;99.99
80290;SHT30;69592;44.804;-0.550;2024-03-02T01:10:35;9.93;99.99
80290;SHT30;69592;44.804;-0.550;2024-03-02T01:13:01;9.91;99.99
80290;SHT30;69592;44.804;-0.550;2024-03-02T01:15:29;9.93;99.99
80290;SHT30;69592;44.804;-0.550;2024-03-02T01:17:54;9.96;99.99
80290;SHT30;69592;44.804;-0.550;2024-03-02T01:20:20;10.02;99.99
80290;SHT30;69592;44.804;-0.550;2024-03-02T01:22:45;9.99;99.99
80290;SHT30;69592;44.804;-0.550;2024-03-02T01:25:11;9.96;99.99
80290;SHT30;69592;44.804;-0.550;2024-03-02T01:27:36;10.01;99.99
80290;SHT30;69592;44.804;-0.550;2024-03-02T01:30:02;9.99;99.99
80290;SHT30;69592;44.804;-0.550;2024-03-02T01:32:30;10.03;99.99
80290;SHT30;69592;44.804;-0.550;2024-03-02T01:34:56;9.96;99.99
80290;SHT30;69592;44.804;-0.550;2024-03-02T01:37:21;10.02;99.99
80290;SHT30;69592;44.804;-0.550;2024-03-02T01:39:47;10.01;99.99
80290;SHT30;69592;44.804;-0.550;2024-03-02T01:42:12;9.96;99.99
80290;SHT30;69592;44.804;-0.550;2024-03-02T01:44:39;9.92;99.99
80290;SHT30;69592;44.804;-0.550;2024-03-02T01:47:05;9.89;99.99
80290;SHT30;69592;44.804;-0.550;2024-03-02T01:49:30;9.96;99.99
80290;SHT30;69592;44.804;-0.550;2024-03-02T01:51:56;9.88;99.99
80290;SHT30;69592;44.804;-0.550;2024-03-02T01:54:21;9.89;99.99
80290;SHT30;69592;44.804;-0.550;2024-03-02T01:56:47;9.85;99.99
80290;SHT30;69592;44.804;-0.550;2024-03-02T01:59:12;9.91;99.99
80290;SHT30;69592;44.804;-0.550;2024-03-02T02:01:38;9.89;99.99
80290;SHT30;69592;44.804;-0.550;2024-03-02T02:04:04;9.85;99.99
80290;SHT30;69592;44.804;-0.550;2024-03-02T02:38:01;9.92;99.99
80290;SHT30;69592;44.804;-0.550;2024-03-02T02:40:30;9.93;99.99
80290;SHT30;69592;44.804;-0.550;2024-03-02T02:42:56;9.89;99.99
80290;SHT30;69592;44.804;-0.550;2024-03-02T02:45:21;9.96;99.99
80290;SHT30;69592;44.804;-0.550;2024-03-02T02:47:47;9.98;99.99
80290;SHT30;69592;44.804;-0.550;2024-03-02T02:50:12;10.01;99.99
80290;SHT30;69592;44.804;-0.550;2024-03-02T02:52:39;10.03;99.99
80290;SHT30;69592;44.804;-0.550;2024-03-02T02:55:07;10.01;99.99
80290;SHT30;69592;44.804;-0.550;2024-03-02T02:57:34;10.01;99.99
80290;SHT30;69592;44.804;-0.550;2024-03-02T03:00:21;10.02;99.99
80290;SHT30;69592;44.804;-0.550;2024-03-02T03:02:49;10.09;99.99
80290;SHT30;69592;44.804;-0.550;2024-03-02T03:05:15;10.13;99.99
80290;SHT30;69592;44.804;-0.550;2024-03-02T03:07:41;10.09;99.99
80290;SHT30;69592;44.804;-0.550;2024-03-02T03:10:07;10.10;99.99
80290;SHT30;69592;44.804;-0.550;2024-03-02T03:12:34;10.09;99.99
80290;SHT30;69592;44.804;-0.550;2024-03-02T03:15:00;10.06;99.99
80290;SHT30;69592;44.804;-0.550;2024-03-02T03:17:26;10.08;99.99
80290;SHT30;69592;44.804;-0.550;2024-03-02T03:19:52;10.13;99.99
80290;SHT30;69592;44.804;-0.550;2024-03-02T03:22:17;10.12;99.99
80290;SHT30;69592;44.804;-0.550;2024-03-02T03:27:08;10.19;99.99
80290;SHT30;69592;44.804;-0.550;2024-03-02T03:29:36;10.09;99.99
80290;SHT30;69592;44.804;-0.550;2024-03-02T03:32:01;10.13;99.99
80290;SHT30;69592;44.804;-0.550;2024-03-02T03:34:26;10.19;99.99
80290;SHT30;69592;44.804;-0.550;2024-03-02T03:36:54;10.13;99.99
80290;SHT30;69592;44.804;-0.550;2024-03-02T03:39:19;10.15;99.99
80290;SHT30;69592;44.804;-0.550;2024-03-02T03:41:45;10.19;99.99
80290;SHT30;69592;44.804;-0.550;2024-03-02T03:46:36;10.23;99.99
80290;SHT30;69592;44.804;-0.550;2024-03-02T03:49:01;10.25;99.99
80290;SHT30;69592;44.804;-0.550;2024-03-02T03:51:27;10.19;99.99
80290;SHT30;69592;44.804;-0.550;2024-03-02T03:53:52;10.22;99.99
80290;SHT30;69592;44.804;-0.550;2024-03-02T03:56:17;10.22;99.99
80290;SHT30;69592;44.804;-0.550;2024-03-02T03:58:43;10.13;99.99
80290;SHT30;69592;44.804;-0.550;2024-03-02T04:01:08;10.17;99.99
80290;SHT30;69592;44.804;-0.550;2024-03-02T04:03:34;10.16;99.99
80290;SHT30;69592;44.804;-0.550;2024-03-02T04:05:59;10.19;99.99
80290;SHT30;69592;44.804;-0.550;2024-03-02T04:08:25;10.12;99.99
80290;SHT30;69592;44.804;-0.550;2024-03-02T04:10:50;10.10;99.99
80290;SHT30;69592;44.804;-0.550;2024-03-02T07:13:18;10.40;99.99
80290;SHT30;69592;44.804;-0.550;2024-03-02T07:18:44;10.25;99.99
80290;SHT30;69592;44.804;-0.550;2024-03-02T07:21:16;10.28;99.99
80290;SHT30;69592;44.804;-0.550;2024-03-02T07:23:41;10.22;99.99
80290;SHT30;69592;44.804;-0.550;2024-03-02T07:26:07;10.23;99.99
80290;SHT30;69592;44.804;-0.550;2024-03-02T07:28:32;10.20;99.99
80290;SHT30;69592;44.804;-0.550;2024-03-02T07:31:02;10.23;99.99
80290;SHT30;69592;44.804;-0.550;2024-03-02T07:33:28;10.22;99.99
80290;SHT30;69592;44.804;-0.550;2024-03-02T07:35:54;10.22;99.99
80290;SHT30;69592;44.804;-0.550;2024-03-02T07:38:21;10.12;99.99
80290;SHT30;69592;44.804;-0.550;2024-03-02T07:40:48;9.99;99.99
80290;SHT30;69592;44.804;-0.550;2024-03-02T07:43:18;9.96;99.99
80290;SHT30;69592;44.804;-0.550;2024-03-02T07:45:44;10.02;99.99
80290;SHT30;69592;44.804;-0.550;2024-03-02T07:48:10;10.03;99.99
80290;SHT30;69592;44.804;-0.550;2024-03-02T07:50:35;10.06;99.99
80290;SHT30;69592;44.804;-0.550;2024-03-02T07:53:02;10.15;99.99
80290;SHT30;69592;44.804;-0.550;2024-03-02T07:55:29;10.17;99.99
80290;SHT30;69592;44.804;-0.550;2024-03-02T08:02:45;10.22;99.99
80290;SHT30;69592;44.804;-0.550;2024-03-02T08:05:10;10.20;99.99
80290;SHT30;69592;44.804;-0.550;2024-03-02T08:10:01;10.29;99.99
80290;SHT30;69592;44.804;-0.550;2024-03-02T08:12:26;10.30;99.99
80290;SHT30;69592;44.804;-0.550;2024-03-02T08:14:52;10.37;99.99
80290;SHT30;69592;44.804;-0.550;2024-03-02T08:17:17;10.43;99.99
80290;SHT30;69592;44.804;-0.550;2024-03-02T08:19:43;10.43;99.91
80290;SHT30;69592;44.804;-0.550;2024-03-02T08:22:09;10.36;99.99
80290;SHT30;69592;44.804;-0.550;2024-03-02T08:24:35;10.32;99.96
80290;SHT30;69592;44.804;-0.550;2024-03-02T08:27:01;10.35;99.99
80290;SHT30;69592;44.804;-0.550;2024-03-02T08:29:26;10.25;99.99
80290;SHT30;69592;44.804;-0.550;2024-03-02T08:31:52;10.30;99.99
80290;SHT30;69592;44.804;-0.550;2024-03-02T08:34:18;10.32;99.99
80290;SHT30;69592;44.804;-0.550;2024-03-02T08:36:43;10.32;99.69
80290;SHT30;69592;44.804;-0.550;2024-03-02T08:39:09;10.35;99.99
80290;SHT30;69592;44.804;-0.550;2024-03-02T08:41:47;10.33;99.99
80290;SHT30;69592;44.804;-0.550;2024-03-02T08:44:13;10.35;99.99
80290;SHT30;69592;44.804;-0.550;2024-03-02T08:46:39;10.30;99.99
80290;SHT30;69592;44.804;-0.550;2024-03-02T08:49:05;10.36;99.99
80290;SHT30;69592;44.804;-0.550;2024-03-02T08:56:26;10.53;99.64
80290;SHT30;69592;44.804;-0.550;2024-03-02T08:58:51;10.63;99.35
80290;SHT30;69592;44.804;-0.550;2024-03-02T09:01:18;10.77;98.96
80290;SHT30;69592;44.804;-0.550;2024-03-02T09:03:43;10.97;99.15
80290;SHT30;69592;44.804;-0.550;2024-03-02T09:06:12;11.18;98.16
80290;SHT30;69592;44.804;-0.550;2024-03-02T09:08:39;11.25;98.18
80290;SHT30;69592;44.804;-0.550;2024-03-02T09:11:06;11.35;98.26
80290;SHT30;69592;44.804;-0.550;2024-03-02T09:13:32;11.31;97.68
80290;SHT30;69592;44.804;-0.550;2024-03-02T09:15:58;11.27;97.92
80290;SHT30;69592;44.804;-0.550;2024-03-02T09:18:23;11.18;98.47
80290;SHT30;69592;44.804;-0.550;2024-03-02T09:20:49;11.22;97.65
80290;SHT30;69592;44.804;-0.550;2024-03-02T09:23:14;11.29;97.81
80290;SHT30;69592;44.804;-0.550;2024-03-02T09:25:40;11.41;98.09
80290;SHT30;69592;44.804;-0.550;2024-03-02T10:53:43;13.76;89.06
80290;SHT30;69592;44.804;-0.550;2024-03-02T10:58:36;13.77;88.93
80290;SHT30;69592;44.804;-0.550;2024-03-02T11:13:28;13.77;86.89
80290;SHT30;69592;44.804;-0.550;2024-03-02T11:20:55;13.79;87.23
80290;SHT30;69592;44.804;-0.550;2024-03-02T13:09:20;10.64;98.86
80290;SHT30;69592;44.804;-0.550;2024-03-02T13:11:46;10.70;97.95
80290;SHT30;69592;44.804;-0.550;2024-03-02T13:16:39;10.88;98.18
80290;SHT30;69592;44.804;-0.550;2024-03-02T13:19:10;10.77;97.46
80290;SHT30;69592;44.804;-0.550;2024-03-02T13:21:36;10.83;97.77
80290;SHT30;69592;44.804;-0.550;2024-03-02T13:24:02;10.90;97.42
80290;SHT30;69592;44.804;-0.550;2024-03-02T13:26:28;10.90;97.45
80290;SHT30;69592;44.804;-0.550;2024-03-02T13:28:54;10.94;97.58
80290;SHT30;69592;44.804;-0.550;2024-03-02T13:31:19;10.91;97.58
80290;SHT30;69592;44.804;-0.550;2024-03-02T13:33:46;10.81;97.85
80290;SHT30;69592;44.804;-0.550;2024-03-02T13:36:11;10.78;98.36
80290;SHT30;69592;44.804;-0.550;2024-03-02T13:38:37;11.00;97.82
80290;SHT30;69592;44.804;-0.550;2024-03-02T13:41:02;11.03;97.45
80290;SHT30;69592;44.804;-0.550;2024-03-02T13:43:28;11.00;98.01
80290;SHT30;69592;44.804;-0.550;2024-03-02T13:45:57;10.97;97.85
80290;SHT30;69592;44.804;-0.550;2024-03-02T13:48:23;10.91;98.28
80290;SHT30;69592;44.804;-0.550;2024-03-02T13:50:51;10.96;97.83
80290;SHT30;69592;44.804;-0.550;2024-03-02T13:53:17;10.90;98.58
80290;SHT30;69592;44.804;-0.550;2024-03-02T13:55:43;11.03;98.22
80290;SHT30;69592;44.804;-0.550;2024-03-02T13:58:09;11.10;98.31
80290;SHT30;69592;44.804;-0.550;2024-03-02T14:00:38;11.15;98.09
80290;SHT30;69592;44.804;-0.550;2024-03-02T14:03:05;11.24;98.10
80290;SHT30;69592;44.804;-0.550;2024-03-02T14:05:31;11.29;97.09
80290;SHT30;69592;44.804;-0.550;2024-03-02T14:07:57;11.19;97.43
80290;SHT30;69592;44.804;-0.550;2024-03-02T14:10:23;11.14;97.53
80290;SHT30;69592;44.804;-0.550;2024-03-02T14:12:49;11.21;97.72
80290;SHT30;69592;44.804;-0.550;2024-03-02T14:15:15;11.17;97.65
80290;SHT30;69592;44.804;-0.550;2024-03-02T14:17:43;11.18;97.73
80290;SHT30;69592;44.804;-0.550;2024-03-02T16:55:29;10.78;98.30
80290;SHT30;69592;44.804;-0.550;2024-03-02T16:57:55;10.77;98.01
80290;SHT30;69592;44.804;-0.550;2024-03-02T17:05:11;10.66;97.46
80290;SHT30;69592;44.804;-0.550;2024-03-02T17:17:23;10.70;96.44
80290;SHT30;69592;44.804;-0.550;2024-03-02T17:19:48;10.67;97.10
80290;SHT30;69592;44.804;-0.550;2024-03-02T17:22:13;10.67;97.77
80290;SHT30;69592;44.804;-0.550;2024-03-02T17:24:39;10.64;97.64
80290;SHT30;69592;44.804;-0.550;2024-03-02T17:34:24;10.73;97.41
80290;SHT30;69592;44.804;-0.550;2024-03-02T17:36:49;10.70;97.41
80290;SHT30;69592;44.804;-0.550;2024-03-02T17:44:05;10.59;97.43
80290;SHT30;69592;44.804;-0.550;2024-03-02T17:51:24;10.59;97.75
80290;SHT30;69592;44.804;-0.550;2024-03-02T17:53:49;10.50;97.81
80290;SHT30;69592;44.804;-0.550;2024-03-02T17:56:17;10.46;98.02
80290;SHT30;69592;44.804;-0.550;2024-03-02T17:58:42;10.54;97.68
80290;SHT30;69592;44.804;-0.550;2024-03-02T18:01:08;10.43;97.86
80290;SHT30;69592;44.804;-0.550;2024-03-02T18:06:05;10.39;98.12
80290;SHT30;69592;44.804;-0.550;2024-03-02T18:08:30;10.42;98.30
80290;SHT30;69592;44.804;-0.550;2024-03-02T18:10:56;10.47;98.37
80290;SHT30;69592;44.804;-0.550;2024-03-02T18:13:22;10.50;97.98
80290;SHT30;69592;44.804;-0.550;2024-03-02T18:15:47;10.43;97.95
80290;SHT30;69592;44.804;-0.550;2024-03-02T18:18:12;10.39;98.32
80290;SHT30;69592;44.804;-0.550;2024-03-02T18:20:38;10.42;98.24
80290;SHT30;69592;44.804;-0.550;2024-03-02T18:23:04;10.35;98.31
80290;SHT30;69592;44.804;-0.550;2024-03-02T18:25:30;10.39;98.18
80290;SHT30;69592;44.804;-0.550;2024-03-02T18:27:55;10.39;98.27
80290;SHT30;69592;44.804;-0.550;2024-03-02T18:30:21;10.46;98.38
80290;SHT30;69592;44.804;-0.550;2024-03-02T18:32:46;10.49;98.26
80290;SHT30;69592;44.804;-0.550;2024-03-02T18:35:12;10.25;98.19
80290;SHT30;69592;44.804;-0.550;2024-03-02T18:37:37;10.40;98.54
80290;SHT30;69592;44.804;-0.550;2024-03-02T18:40:04;10.42;98.39
80290;SHT30;69592;44.804;-0.550;2024-03-02T18:42:34;10.28;98.12
80290;SHT30;69592;44.804;-0.550;2024-03-02T18:45:01;10.32;98.09
80290;SHT30;69592;44.804;-0.550;2024-03-02T18:47:30;10.26;97.65
80290;SHT30;69592;44.804;-0.550;2024-03-02T18:49:56;10.12;98.49
80290;SHT30;69592;44.804;-0.550;2024-03-02T18:52:22;9.93;98.97
80290;SHT30;69592;44.804;-0.550;2024-03-02T18:54:47;9.82;99.42
80290;SHT30;69592;44.804;-0.550;2024-03-02T18:57:13;9.91;99.69
80290;SHT30;69592;44.804;-0.550;2024-03-02T18:59:38;9.75;99.58
80290;SHT30;69592;44.804;-0.550;2024-03-02T19:02:04;9.72;99.97
80290;SHT30;69592;44.804;-0.550;2024-03-02T19:04:29;9.82;99.99
80290;SHT30;69592;44.804;-0.550;2024-03-02T19:06:55;9.88;99.09
80290;SHT30;69592;44.804;-0.550;2024-03-02T19:09:20;9.91;99.83
80290;SHT30;69592;44.804;-0.550;2024-03-02T19:11:46;9.65;98.66
80290;SHT30;69592;44.804;-0.550;2024-03-02T19:14:11;9.65;99.31
80290;SHT30;69592;44.804;-0.550;2024-03-02T19:16:37;9.74;98.03
80290;SHT30;69592;44.804;-0.550;2024-03-02T19:19:02;9.58;98.59
80290;SHT30;69592;44.804;-0.550;2024-03-02T19:21:28;9.47;98.94
80290;SHT30;69592;44.804;-0.550;2024-03-02T19:23:53;9.67;98.97
80290;SHT30;69592;44.804;-0.550;2024-03-02T19:26:19;9.81;98.59
80290;SHT30;69592;44.804;-0.550;2024-03-02T19:28:45;9.88;97.66
80290;SHT30;69592;44.804;-0.550;2024-03-02T19:31:12;9.98;97.22
80290;SHT30;69592;44.804;-0.550;2024-03-02T19:33:37;9.92;95.49
80290;SHT30;69592;44.804;-0.550;2024-03-02T19:36:03;9.82;93.69
80290;SHT30;69592;44.804;-0.550;2024-03-02T19:38:29;9.86;95.04
80290;SHT30;69592;44.804;-0.550;2024-03-02T19:40:55;9.96;96.20
80290;SHT30;69592;44.804;-0.550;2024-03-02T19:43:20;10.08;96.76
80290;SHT30;69592;44.804;-0.550;2024-03-02T19:45:46;10.03;97.01
80290;SHT30;69592;44.804;-0.550;2024-03-02T19:48:12;10.02;96.78
80290;SHT30;69592;44.804;-0.550;2024-03-02T19:53:06;10.10;96.81
80290;SHT30;69592;44.804;-0.550;2024-03-02T19:55:31;10.08;96.66
80290;SHT30;69592;44.804;-0.550;2024-03-02T19:57:56;10.15;97.02
80290;SHT30;69592;44.804;-0.550;2024-03-02T20:00:22;10.13;96.65
80290;SHT30;69592;44.804;-0.550;2024-03-02T20:02:48;10.10;96.77
80290;SHT30;69592;44.804;-0.550;2024-03-02T20:05:13;10.06;96.72
80290;SHT30;69592;44.804;-0.550;2024-03-02T20:07:40;10.03;97.28
80290;SHT30;69592;44.804;-0.550;2024-03-02T20:10:07;9.98;97.20
80290;SHT30;69592;44.804;-0.550;2024-03-02T20:12:33;9.93;97.43
80290;SHT30;69592;44.804;-0.550;2024-03-02T20:14:58;9.95;97.05
80290;SHT30;69592;44.804;-0.550;2024-03-02T20:17:24;9.91;96.90
80290;SHT30;69592;44.804;-0.550;2024-03-02T20:19:50;9.78;96.94
80290;SHT30;69592;44.804;-0.550;2024-03-02T20:24:40;9.74;97.36
80290;SHT30;69592;44.804;-0.550;2024-03-02T20:27:06;9.67;97.03
80290;SHT30;69592;44.804;-0.550;2024-03-02T20:29:32;9.65;96.82
80290;SHT30;69592;44.804;-0.550;2024-03-02T20:31:57;9.67;97.20
80290;SHT30;69592;44.804;-0.550;2024-03-02T20:34:24;9.67;96.99
80290;SHT30;69592;44.804;-0.550;2024-03-02T20:36:49;9.70;97.19
80290;SHT30;69592;44.804;-0.550;2024-03-02T20:44:05;9.57;97.05
80290;SHT30;69592;44.804;-0.550;2024-03-02T20:46:31;9.54;97.09
80290;SHT30;69592;44.804;-0.550;2024-03-02T20:48:56;9.50;97.29
80290;SHT30;69592;44.804;-0.550;2024-03-02T20:51:25;9.47;97.11
80290;SHT30;69592;44.804;-0.550;2024-03-02T20:53:56;9.45;97.25
80290;SHT30;69592;44.804;-0.550;2024-03-02T20:56:23;9.40;97.04
80290;SHT30;69592;44.804;-0.550;2024-03-02T20:58:48;9.38;97.54
80290;SHT30;69592;44.804;-0.550;2024-03-02T21:01:14;9.30;97.33
80290;SHT30;69592;44.804;-0.550;2024-03-02T21:03:39;9.31;97.57
80290;SHT30;69592;44.804;-0.550;2024-03-02T21:06:06;9.31;97.41
80290;SHT30;69592;44.804;-0.550;2024-03-02T21:08:31;9.34;97.31
80290;SHT30;69592;44.804;-0.550;2024-03-02T21:10:56;9.28;97.39
80290;SHT30;69592;44.804;-0.550;2024-03-02T21:13:22;9.21;97.48
80290;SHT30;69592;44.804;-0.550;2024-03-02T21:18:12;9.23;97.77
80290;SHT30;69592;44.804;-0.550;2024-03-02T21:20:38;9.26;97.64
80290;SHT30;69592;44.804;-0.550;2024-03-02T21:23:03;9.23;97.62
80290;SHT30;69592;44.804;-0.550;2024-03-02T21:25:29;9.20;97.57
80290;SHT30;69592;44.804;-0.550;2024-03-02T21:27:59;9.21;97.63
80290;SHT30;69592;44.804;-0.550;2024-03-02T21:30:25;9.23;97.89
80290;SHT30;69592;44.804;-0.550;2024-03-02T21:32:53;9.17;97.89
80290;SHT30;69592;44.804;-0.550;2024-03-02T21:35:22;9.23;97.92
80290;SHT30;69592;44.804;-0.550;2024-03-02T21:37:47;9.27;97.73
80290;SHT30;69592;44.804;-0.550;2024-03-02T21:40:13;9.28;97.72
80290;SHT30;69592;44.804;-0.550;2024-03-02T21:42:40;9.26;97.37
80290;SHT30;69592;44.804;-0.550;2024-03-02T21:49:56;9.14;97.79
80290;SHT30;69592;44.804;-0.550;2024-03-02T21:52:22;9.16;97.57
80290;SHT30;69592;44.804;-0.550;2024-03-02T21:54:48;9.16;97.88
80290;SHT30;69592;44.804;-0.550;2024-03-02T21:57:13;9.16;97.61
80290;SHT30;69592;44.804;-0.550;2024-03-02T21:59:45;9.17;97.87
80290;SHT30;69592;44.804;-0.550;2024-03-02T22:02:11;9.16;97.91
80290;SHT30;69592;44.804;-0.550;2024-03-02T22:04:36;9.14;97.63
80290;SHT30;69592;44.804;-0.550;2024-03-02T22:09:27;9.13;97.40
80290;SHT30;69592;44.804;-0.550;2024-03-02T22:11:53;9.13;97.20
80290;SHT30;69592;44.804;-0.550;2024-03-02T22:14:18;9.07;97.62
80290;SHT30;69592;44.804;-0.550;2024-03-02T22:16:45;9.11;97.55
80290;SHT30;69592;44.804;-0.550;2024-03-02T22:19:10;9.09;97.61
80290;SHT30;69592;44.804;-0.550;2024-03-02T22:21:36;9.09;97.71
80290;SHT30;69592;44.804;-0.550;2024-03-02T22:24:01;9.09;97.32
80290;SHT30;69592;44.804;-0.550;2024-03-02T22:26:26;9.11;97.52
80290;SHT30;69592;44.804;-0.550;2024-03-02T22:28:52;9.13;97.44
80290;SHT30;69592;44.804;-0.550;2024-03-02T22:31:17;9.14;97.66
80290;SHT30;69592;44.804;-0.550;2024-03-02T22:33:42;9.13;97.41
80290;SHT30;69592;44.804;-0.550;2024-03-02T22:36:08;9.11;97.40
80290;SHT30;69592;44.804;-0.550;2024-03-02T22:38:34;9.10;97.23
80290;SHT30;69592;44.804;-0.550;2024-03-02T22:45:50;8.97;97.37
80290;SHT30;69592;44.804;-0.550;2024-03-02T22:48:16;8.94;97.30
80290;SHT30;69592;44.804;-0.550;2024-03-02T22:50:41;8.96;97.35
80290;SHT30;69592;44.804;-0.550;2024-03-02T22:53:07;9.00;97.45
80290;SHT30;69592;44.804;-0.550;2024-03-02T22:55:32;8.90;97.59
80290;SHT30;69592;44.804;-0.550;2024-03-02T23:44:34;8.89;98.07
80290;SHT30;69592;44.804;-0.550;2024-03-02T23:46:59;8.89;97.41
80290;SHT30;69592;44.804;-0.550;2024-03-02T23:49:24;8.81;97.58
80290;SHT30;69592;44.804;-0.550;2024-03-02T23:51:50;8.81;97.72
80290;SHT30;69592;44.804;-0.550;2024-03-02T23:54:15;8.84;97.48
80290;SHT30;69592;44.804;-0.550;2024-03-02T23:56:41;8.90;97.36
80290;SHT30;69592;44.804;-0.550;2024-03-02T23:59:06;8.91;97.02
